Time;durP1;ratioP1;P1;durP2;ratioP2;P2;SDS_P1;SDS_P2;PMS_P1;PMS_P2;Temp;Humidity;BMP_temperature;BMP_pressure;BME280_temperature;BME280_humidity;BME280_pressure;Samples;Min_cycle;Max_cycle;Signal;HPM_P1;HPM_P2
2021/09/14 00:02:22;;;;;;;5.22;4.07;;;16.10;82.00;;;;;;5072907;28;20063;-72
2021/09/14 00:04:48;;;;;;;5.50;4.03;;;16.10;82.10;;;;;;5072830;28;20373;-71
2021/09/14 00:07:14;;;;;;;5.05;3.67;;;16.10;82.10;;;;;;5074103;28;20032;-69
2021/09/14 00:09:40;;;;;;;6.07;4.07;;;16.10;82.20;;;;;;5072748;28;20064;-70
2021/09/14 00:12:06;;;;;;;6.72;4.20;;;16.10;82.20;;;;;;5073861;28;20029;-71
2021/09/14 00:14:31;;;;;;;6.90;4.40;;;16.00;82.30;;;;;;5072550;28;20036;-70
2021/09/14 00:16:57;;;;;;;4.75;4.28;;;16.00;82.40;;;;;;5072521;28;20027;-71
2021/09/14 00:19:23;;;;;;;5.53;3.97;;;15.90;82.40;;;;;;5073759;28;20097;-71
2021/09/14 00:21:49;;;;;;;6.32;4.03;;;15.90;82.40;;;;;;5072290;28;20044;-74
2021/09/14 00:24:14;;;;;;;6.43;4.20;;;15.90;82.40;;;;;;5073619;28;20033;-74
2021/09/14 00:26:40;;;;;;;6.50;4.15;;;15.90;82.50;;;;;;5074566;28;20020;-81
2021/09/14 00:29:05;;;;;;;5.75;3.80;;;15.90;82.50;;;;;;5087084;28;20031;-80
2021/09/14 00:31:32;;;;;;;6.72;4.20;;;15.90;82.60;;;;;;5088081;28;20040;-78
2021/09/14 00:33:58;;;;;;;5.43;4.28;;;15.90;82.60;;;;;;5087454;28;20021;-79
2021/09/14 00:36:24;;;;;;;5.82;4.20;;;15.80;83.20;;;;;;5087219;28;20392;-79
2021/09/14 00:38:49;;;;;;;5.20;4.20;;;15.80;82.70;;;;;;5087331;28;20033;-79
2021/09/14 00:41:15;;;;;;;5.72;4.15;;;15.80;82.70;;;;;;5086408;28;20115;-79
2021/09/14 00:43:40;;;;;;;5.18;4.00;;;15.80;82.80;;;;;;5086220;28;20000;-78
2021/09/14 00:46:06;;;;;;;5.22;4.07;;;15.80;82.80;;;;;;5079876;28;20023;-73
2021/09/14 00:48:32;;;;;;;6.25;4.30;;;15.80;82.90;;;;;;5073143;28;20108;-74
2021/09/14 00:50:57;;;;;;;5.72;4.50;;;15.70;82.90;;;;;;5071846;28;20119;-74
2021/09/14 00:53:26;;;;;;;4.97;4.47;;;15.70;82.90;;;;;;5073050;28;20097;-73
2021/09/14 00:55:55;;;;;;;5.40;3.75;;;15.70;83.00;;;;;;5071792;28;20543;-73
2021/09/14 00:58:21;;;;;;;7.78;4.25;;;15.70;83.00;;;;;;5071681;28;20035;-74
2021/09/14 01:00:46;;;;;;;5.13;4.10;;;15.70;83.00;;;;;;5072887;28;20028;-73
2021/09/14 01:03:12;;;;;;;4.32;3.92;;;15.70;83.00;;;;;;5073297;28;20077;-74
2021/09/14 01:05:37;;;;;;;5.75;3.83;;;15.70;83.00;;;;;;5072899;28;20077;-74
2021/09/14 01:08:06;;;;;;;6.63;4.55;;;15.60;83.00;;;;;;5072905;28;20024;-74
2021/09/14 01:10:32;;;;;;;4.97;4.13;;;15.60;83.10;;;;;;5072876;28;20500;-75
2021/09/14 01:12:58;;;;;;;5.10;4.25;;;15.60;83.10;;;;;;5071507;28;20146;-74
2021/09/14 01:15:25;;;;;;;7.60;4.22;;;15.50;83.10;;;;;;5071548;28;20123;-74
2021/09/14 01:17:51;;;;;;;4.95;3.97;;;15.60;83.20;;;;;;5071814;28;20119;-74
2021/09/14 01:20:16;;;;;;;5.30;4.03;;;15.50;83.20;;;;;;5072569;28;20029;-73
2021/09/14 01:22:42;;;;;;;5.10;4.30;;;15.60;83.20;;;;;;5072552;28;20031;-76
2021/09/14 01:25:20;;;;;;;7.22;4.53;;;15.50;83.20;;;;;;5072652;28;20425;-73
2021/09/14 01:27:47;;;;;;;5.88;4.10;;;15.50;83.20;;;;;;5071286;28;20032;-74
2021/09/14 01:30:14;;;;;;;4.65;4.10;;;15.50;83.40;;;;;;5071301;28;20078;-73
2021/09/14 01:32:48;;;;;;;6.13;4.25;;;15.40;83.20;;;;;;5071458;28;20400;-73
2021/09/14 01:35:20;;;;;;;4.82;3.97;;;15.50;83.20;;;;;;5071364;28;20518;-73
2021/09/14 01:37:47;;;;;;;4.90;4.40;;;15.40;83.20;;;;;;5072600;28;20136;-73
2021/09/14 01:40:13;;;;;;;4.68;4.07;;;15.40;83.20;;;;;;5072364;28;20116;-73
2021/09/14 01:42:39;;;;;;;6.10;4.68;;;15.40;83.30;;;;;;5072549;28;20028;-73
2021/09/14 01:45:06;;;;;;;5.82;4.50;;;15.40;83.30;;;;;;5072499;28;20472;-74
2021/09/14 01:47:32;;;;;;;6.10;4.43;;;15.40;83.30;;;;;;5072369;28;20062;-73
2021/09/14 01:49:58;;;;;;;5.45;4.47;;;15.40;83.30;;;;;;5072445;28;20033;-74
2021/09/14 01:52:26;;;;;;;6.90;5.20;;;15.40;83.30;;;;;;5073622;28;20547;-74
2021/09/14 01:54:51;;;;;;;6.30;4.85;;;15.30;83.30;;;;;;5075528;28;20039;-74
2021/09/14 01:57:38;;;;;;;6.53;4.40;;;15.30;83.30;;;;;;5075055;28;20024;-73
2021/09/14 02:00:07;;;;;;;5.68;4.47;;;15.30;83.30;;;;;;5076812;28;20028;-74
2021/09/14 02:05:06;;;;;;;5.95;4.55;;;15.30;83.40;;;;;;5076396;28;20115;-73
2021/09/14 02:43:40;;;;;;;8.93;5.80;;;15.10;83.80;;;;;;5073400;28;20130;-72
2021/09/14 03:00:10;;;;;;;6.50;5.25;;;15.00;84.10;;;;;;5076285;28;20044;-77
2021/09/14 03:02:36;;;;;;;7.45;5.60;;;15.00;84.10;;;;;;5075178;28;20123;-77
2021/09/14 03:05:04;;;;;;;5.80;5.20;;;15.00;84.10;;;;;;5076718;28;20551;-71
2021/09/14 03:07:29;;;;;;;8.32;5.53;;;15.00;84.10;;;;;;5073910;28;20078;-70
2021/09/14 03:09:55;;;;;;;7.82;5.40;;;15.00;84.10;;;;;;5073743;28;20028;-71
2021/09/14 03:12:20;;;;;;;8.48;6.10;;;15.00;84.10;;;;;;5073745;28;20043;-70
2021/09/14 03:14:48;;;;;;;7.57;5.35;;;15.00;84.10;;;;;;5074992;28;20032;-70
2021/09/14 03:17:14;;;;;;;8.23;5.57;;;15.00;84.10;;;;;;5073737;28;20492;-70
2021/09/14 03:19:39;;;;;;;6.97;5.70;;;15.00;84.20;;;;;;5073698;28;20021;-70
2021/09/14 03:22:05;;;;;;;7.18;5.90;;;14.90;84.10;;;;;;5074726;28;20056;-70
2021/09/14 03:24:30;;;;;;;6.32;5.45;;;15.00;84.20;;;;;;5074054;28;20388;-71
2021/09/14 03:26:58;;;;;;;9.93;5.97;;;15.00;84.20;;;;;;5074773;28;20028;-70
2021/09/14 03:29:24;;;;;;;6.60;5.22;;;14.90;84.10;;;;;;5073526;28;20024;-71
2021/09/14 03:31:49;;;;;;;8.60;5.75;;;14.90;84.20;;;;;;5073701;28;20463;-71
2021/09/14 03:37:37;;;;;;;8.30;5.78;;;14.90;84.30;;;;;;5075093;28;20078;-71
2021/09/14 03:40:04;;;;;;;7.43;4.90;;;14.90;84.20;;;;;;5073315;28;20064;-71
2021/09/14 03:42:30;;;;;;;8.07;6.40;;;14.80;84.30;;;;;;5074568;28;20028;-71
2021/09/14 03:44:55;;;;;;;7.68;5.65;;;14.90;84.40;;;;;;5074472;28;20050;-71
2021/09/14 03:47:21;;;;;;;6.60;5.25;;;14.80;84.30;;;;;;5074518;28;20036;-70
2021/09/14 03:49:47;;;;;;;7.05;5.97;;;14.80;84.40;;;;;;5074432;28;20107;-71
2021/09/14 03:52:12;;;;;;;8.18;6.28;;;14.80;84.50;;;;;;5073382;28;20494;-70
2021/09/14 03:54:38;;;;;;;6.90;5.97;;;14.80;84.50;;;;;;5074570;28;20447;-70
2021/09/14 03:57:03;;;;;;;8.88;6.07;;;14.80;84.50;;;;;;5073074;28;20027;-71
2021/09/14 03:59:29;;;;;;;7.40;6.35;;;14.80;84.60;;;;;;5072904;28;20056;-74
2021/09/14 04:01:58;;;;;;;8.23;6.50;;;14.70;84.60;;;;;;5072996;28;20047;-70
2021/09/14 04:04:35;;;;;;;7.22;5.78;;;14.70;84.60;;;;;;5074397;28;20475;-70
2021/09/14 04:09:35;;;;;;;8.00;6.40;;;14.70;84.70;;;;;;5074111;28;20522;-71
2021/09/14 04:12:00;;;;;;;8.02;6.20;;;14.70;84.70;;;;;;5073998;28;20484;-70
2021/09/14 04:14:28;;;;;;;9.82;6.60;;;14.70;84.70;;;;;;5072635;28;20132;-70
2021/09/14 04:16:54;;;;;;;9.00;6.78;;;14.70;84.70;;;;;;5072567;28;20028;-70
2021/09/14 04:19:20;;;;;;;9.65;6.63;;;14.60;84.80;;;;;;5072620;28;20024;-70
2021/09/14 04:21:46;;;;;;;8.77;6.75;;;14.70;84.80;;;;;;5073466;28;20075;-70
2021/09/14 04:24:12;;;;;;;9.30;6.20;;;14.70;84.90;;;;;;5073808;28;20020;-70
2021/09/14 04:26:38;;;;;;;8.38;6.85;;;14.60;84.80;;;;;;5072363;28;20389;-70
2021/09/14 04:29:03;;;;;;;8.63;6.40;;;14.70;84.90;;;;;;5072401;28;20024;-70
2021/09/14 04:31:29;;;;;;;8.82;6.50;;;14.60;84.90;;;;;;5078145;28;20028;-78
2021/09/14 04:33:55;;;;;;;8.60;6.72;;;14.60;84.90;;;;;;5093033;28;20038;-80
2021/09/14 04:36:20;;;;;;;11.73;7.13;;;14.60;84.90;;;;;;5092538;28;20016;-79
2021/09/14 04:38:46;;;;;;;8.20;6.70;;;14.60;85.00;;;;;;5090385;28;20033;-80
2021/09/14 04:41:12;;;;;;;8.63;6.72;;;14.60;85.00;;;;;;5091944;28;20036;-80
2021/09/14 04:43:37;;;;;;;9.55;7.47;;;14.50;85.00;;;;;;5092782;28;20051;-79
2021/09/14 04:46:04;;;;;;;9.57;6.78;;;14.60;85.10;;;;;;5093471;28;20029;-79
2021/09/14 04:48:30;;;;;;;10.63;7.70;;;14.50;85.00;;;;;;5092925;28;20080;-79
2021/09/14 04:50:55;;;;;;;8.50;7.18;;;14.50;85.10;;;;;;5092039;28;20062;-77
2021/09/14 04:53:21;;;;;;;10.63;6.90;;;14.50;85.10;;;;;;5086648;28;20032;-70
2021/09/14 04:55:47;;;;;;;9.23;7.32;;;14.50;85.10;;;;;;5071789;28;20037;-72
2021/09/14 04:58:12;;;;;;;10.50;7.60;;;14.60;85.10;;;;;;5071870;28;20471;-70
2021/09/14 05:00:38;;;;;;;8.20;7.20;;;14.50;85.10;;;;;;5071808;28;20029;-71
2021/09/14 05:03:04;;;;;;;8.73;7.28;;;14.50;85.10;;;;;;5071821;28;20052;-70
2021/09/14 05:05:29;;;;;;;9.85;7.35;;;14.50;85.10;;;;;;5081097;28;20060;-78
2021/09/14 05:11:17;;;;;;;11.77;6.90;;;14.50;85.10;;;;;;5090199;28;20074;-78
2021/09/14 05:13:43;;;;;;;10.13;7.25;;;14.50;85.00;;;;;;5087769;28;20028;-78
2021/09/14 05:16:08;;;;;;;8.88;7.30;;;14.50;85.00;;;;;;5087855;28;20032;-79
2021/09/14 05:18:34;;;;;;;9.82;7.30;;;14.50;85.00;;;;;;5088700;28;20024;-80
2021/09/14 05:20:59;;;;;;;9.52;7.15;;;14.50;85.10;;;;;;5086129;28;20459;-79
2021/09/14 05:23:32;;;;;;;8.90;6.80;;;14.50;85.00;;;;;;5085439;28;20519;-80
2021/09/14 05:26:01;;;;;;;9.57;7.28;;;14.50;85.10;;;;;;5085186;28;20070;-79
2021/09/14 05:28:28;;;;;;;10.10;7.95;;;14.50;85.10;;;;;;5086349;28;20552;-79
2021/09/14 05:30:53;;;;;;;9.70;7.15;;;14.60;85.10;;;;;;5087469;28;20028;-79
2021/09/14 05:33:19;;;;;;;8.65;7.60;;;14.50;85.00;;;;;;5085185;28;20116;-79
2021/09/14 05:35:47;;;;;;;8.73;7.20;;;14.50;85.00;;;;;;5086792;28;20036;-79
2021/09/14 05:38:15;;;;;;;8.35;7.50;;;14.60;85.10;;;;;;5086865;28;20067;-79
2021/09/14 05:40:41;;;;;;;11.93;8.15;;;14.60;85.00;;;;;;5087098;28;20100;-79
2021/09/14 05:43:07;;;;;;;11.07;7.93;;;14.60;85.00;;;;;;5086170;28;20035;-80
2021/09/14 05:45:33;;;;;;;13.68;11.02;;;14.60;85.00;;;;;;5085767;28;20025;-80
2021/09/14 05:47:59;;;;;;;10.30;8.38;;;14.60;85.00;;;;;;5086326;28;20059;-80
2021/09/14 05:50:25;;;;;;;9.45;7.45;;;14.60;85.00;;;;;;5087048;28;20032;-80
2021/09/14 05:52:51;;;;;;;8.88;7.35;;;14.60;85.00;;;;;;5086087;28;20041;-80
2021/09/14 05:55:17;;;;;;;8.73;7.43;;;14.70;85.00;;;;;;5084904;28;20035;-79
2021/09/14 05:57:42;;;;;;;11.52;7.13;;;14.70;85.00;;;;;;5085662;28;20021;-80
2021/09/14 06:00:09;;;;;;;9.32;7.60;;;14.70;84.90;;;;;;5087071;28;20032;-80
2021/09/14 06:02:34;;;;;;;11.13;7.55;;;14.70;84.90;;;;;;5084417;28;20028;-80
2021/09/14 06:08:44;;;;;;;10.00;6.90;;;14.90;84.80;;;;;;5084605;28;20047;-78
2021/09/14 06:11:10;;;;;;;9.40;6.90;;;15.00;84.60;;;;;;5084119;28;20032;-80
2021/09/14 06:16:57;;;;;;;8.07;6.40;;;15.00;84.50;;;;;;5085116;28;20040;-79
2021/09/14 06:19:23;;;;;;;9.10;6.15;;;15.10;84.30;;;;;;5082818;28;20024;-79
2021/09/14 06:21:49;;;;;;;8.48;6.63;;;15.20;84.20;;;;;;5085573;28;20476;-79
2021/09/14 06:24:14;;;;;;;9.02;7.10;;;15.30;84.10;;;;;;5085716;28;20024;-79
2021/09/14 06:26:40;;;;;;;8.32;7.40;;;15.30;84.00;;;;;;5084911;28;20107;-79
2021/09/14 06:29:06;;;;;;;8.40;7.10;;;15.40;83.90;;;;;;5084872;28;20092;-80
2021/09/14 06:31:32;;;;;;;9.00;7.10;;;15.40;83.80;;;;;;5081992;28;20040;-80
2021/09/14 06:33:57;;;;;;;9.15;6.90;;;15.50;83.70;;;;;;5085297;28;20017;-80
2021/09/14 06:36:23;;;;;;;8.82;6.75;;;15.60;83.70;;;;;;5086160;28;20052;-79
2021/09/14 06:38:49;;;;;;;8.73;6.70;;;15.70;83.60;;;;;;5085869;28;20106;-80
2021/09/14 06:41:14;;;;;;;10.43;7.20;;;15.70;83.50;;;;;;5089964;28;20141;-79
2021/09/14 06:43:40;;;;;;;8.75;7.10;;;15.70;83.30;;;;;;5090961;28;20076;-78
2021/09/14 06:46:05;;;;;;;8.88;7.25;;;15.80;83.30;;;;;;5089808;28;20025;-80
2021/09/14 06:48:31;;;;;;;8.95;7.10;;;15.90;83.20;;;;;;5088153;28;20027;-78
2021/09/14 06:50:57;;;;;;;7.97;6.95;;;15.90;83.10;;;;;;5086380;28;20033;-80
2021/09/14 06:53:23;;;;;;;8.95;7.82;;;16.00;83.00;;;;;;5086413;28;20021;-79
2021/09/14 06:55:49;;;;;;;8.60;6.80;;;16.00;82.90;;;;;;5086474;28;20054;-80
2021/09/14 06:58:16;;;;;;;10.25;7.03;;;16.00;82.80;;;;;;5092014;28;20028;-80
2021/09/14 07:00:42;;;;;;;7.82;7.03;;;16.10;82.80;;;;;;5089926;28;20343;-79
2021/09/14 07:03:07;;;;;;;9.18;6.90;;;16.10;82.70;;;;;;5088947;28;20123;-80
2021/09/14 07:05:33;;;;;;;8.57;6.63;;;16.20;82.60;;;;;;5090053;28;20048;-80
2021/09/14 07:07:59;;;;;;;7.43;6.57;;;16.20;82.50;;;;;;5088959;28;20035;-79
2021/09/14 07:10:25;;;;;;;8.05;6.47;;;16.30;82.40;;;;;;5087664;28;20052;-80
2021/09/14 07:12:50;;;;;;;7.97;6.88;;;16.30;82.40;;;;;;5087498;28;20090;-80
2021/09/14 07:15:17;;;;;;;8.07;6.93;;;16.30;82.30;;;;;;5086164;28;20031;-80
2021/09/14 07:18:23;;;;;;;8.05;6.70;;;16.40;82.30;;;;;;5089491;28;20054;-79
2021/09/14 07:20:48;;;;;;;7.95;7.05;;;16.40;82.10;;;;;;5089815;28;20029;-80
2021/09/14 07:23:14;;;;;;;8.63;6.88;;;16.40;82.00;;;;;;5088516;28;20045;-80
2021/09/14 07:25:41;;;;;;;9.15;7.22;;;16.40;81.90;;;;;;5087005;28;20028;-79
2021/09/14 07:28:09;;;;;;;9.38;7.47;;;16.40;81.80;;;;;;5087717;28;20055;-79
2021/09/14 07:30:38;;;;;;;8.48;7.32;;;16.50;82.50;;;;;;5088503;28;20029;-80
2021/09/14 07:33:04;;;;;;;9.20;7.57;;;16.50;81.80;;;;;;5089137;28;20044;-81
2021/09/14 07:35:30;;;;;;;8.27;6.88;;;16.50;81.70;;;;;;5090268;28;20046;-80
2021/09/14 07:41:18;;;;;;;7.53;6.53;;;16.60;81.50;;;;;;5106626;28;20039;-80
2021/09/14 07:43:43;;;;;;;9.07;6.90;;;16.60;81.40;;;;;;5107893;28;20059;-80
2021/09/14 07:46:10;;;;;;;7.85;6.75;;;16.70;81.30;;;;;;5106046;28;20028;-79
2021/09/14 07:48:37;;;;;;;8.25;7.03;;;16.70;81.20;;;;;;5105744;28;20062;-79
2021/09/14 07:51:03;;;;;;;8.55;7.35;;;16.70;81.10;;;;;;5089934;28;20043;-80
2021/09/14 07:53:29;;;;;;;9.30;7.45;;;16.70;81.00;;;;;;5105931;28;20039;-80
2021/09/14 07:55:55;;;;;;;10.70;7.30;;;16.80;81.00;;;;;;5087653;28;20059;-80
2021/09/14 07:58:21;;;;;;;6.82;6.10;;;16.80;80.90;;;;;;5088207;28;20515;-79
2021/09/14 08:00:46;;;;;;;7.85;6.88;;;16.90;80.80;;;;;;5089642;28;20012;-80
2021/09/14 08:03:12;;;;;;;8.50;7.05;;;17.00;80.80;;;;;;5102310;28;20499;-79
2021/09/14 08:05:39;;;;;;;7.40;6.57;;;17.00;80.60;;;;;;5086742;28;20024;-78
2021/09/14 08:08:06;;;;;;;7.72;6.72;;;17.00;80.50;;;;;;5086054;28;20020;-80
2021/09/14 08:10:33;;;;;;;8.80;7.10;;;17.00;80.40;;;;;;5087177;28;20036;-79
2021/09/14 08:16:42;;;;;;;9.32;7.22;;;17.00;80.30;;;;;;5089461;28;20063;-80
2021/09/14 08:19:08;;;;;;;8.63;6.47;;;17.10;80.40;;;;;;5088755;28;20332;-80
2021/09/14 08:21:33;;;;;;;7.97;7.18;;;17.10;80.30;;;;;;5087988;28;20032;-78
2021/09/14 08:23:59;;;;;;;7.68;6.90;;;17.10;80.20;;;;;;5088629;28;20542;-80
2021/09/14 08:26:25;;;;;;;8.25;6.20;;;17.20;80.20;;;;;;5088111;28;20085;-79
2021/09/14 08:28:52;;;;;;;10.73;7.25;;;17.20;80.20;;;;;;5088956;28;20032;-78
2021/09/14 08:31:18;;;;;;;7.80;6.35;;;17.20;80.20;;;;;;5085571;28;20024;-80
2021/09/14 08:33:44;;;;;;;7.45;6.75;;;17.20;80.20;;;;;;5084403;28;20177;-79
2021/09/14 08:36:10;;;;;;;8.02;7.15;;;17.30;80.10;;;;;;5086518;28;20034;-80
2021/09/14 08:38:37;;;;;;;7.97;7.15;;;17.30;80.00;;;;;;5086127;28;20055;-78
2021/09/14 08:41:02;;;;;;;8.10;7.07;;;17.40;80.00;;;;;;5084214;28;20044;-79
2021/09/14 08:47:06;;;;;;;7.10;6.00;;;17.50;79.90;;;;;;5089193;28;20091;-80
2021/09/14 08:49:32;;;;;;;8.63;7.38;;;17.50;79.70;;;;;;5106774;28;20032;-79
2021/09/14 08:51:59;;;;;;;7.93;6.93;;;17.70;79.80;;;;;;5108292;28;20044;-79
2021/09/14 08:54:24;;;;;;;9.45;7.20;;;17.70;79.70;;;;;;5108177;28;20185;-79
2021/09/14 08:56:50;;;;;;;9.90;7.10;;;17.80;79.60;;;;;;5106455;28;20040;-80
2021/09/14 08:59:29;;;;;;;7.85;7.00;;;17.90;79.50;;;;;;5106034;28;20108;-79
2021/09/14 09:01:59;;;;;;;7.80;6.63;;;18.00;79.40;;;;;;5106347;28;20036;-78
2021/09/14 09:04:25;;;;;;;8.45;6.55;;;18.10;79.30;;;;;;5107971;28;20036;-79
2021/09/14 09:10:16;;;;;;;9.55;6.82;;;18.20;79.00;;;;;;5107337;28;20174;-78
2021/09/14 09:16:33;;;;;;;7.05;6.32;;;18.40;78.70;;;;;;5085656;28;20066;-79
2021/09/14 09:19:02;;;;;;;8.20;7.15;;;18.50;78.60;;;;;;5067409;28;20037;-79
2021/09/14 09:21:33;;;;;;;8.45;6.63;;;18.60;78.50;;;;;;5067251;28;20108;-80
2021/09/14 09:24:02;;;;;;;8.75;7.35;;;18.70;78.30;;;;;;5084329;28;20041;-80
2021/09/14 09:26:32;;;;;;;7.10;6.40;;;18.70;78.20;;;;;;5066326;28;20102;-79
2021/09/14 09:28:59;;;;;;;8.18;6.50;;;18.80;78.10;;;;;;5066577;28;20024;-80
2021/09/14 09:31:28;;;;;;;7.65;6.85;;;18.90;77.90;;;;;;5067094;28;20036;-79
2021/09/14 09:34:04;;;;;;;7.53;6.20;;;19.00;77.80;;;;;;5068028;28;20127;-80
2021/09/14 09:39:52;;;;;;;8.15;5.80;;;19.30;77.40;;;;;;5083520;28;20074;-80
2021/09/14 09:42:20;;;;;;;6.43;5.82;;;19.40;77.10;;;;;;5068588;28;20036;-80
2021/09/14 09:44:54;;;;;;;6.85;6.15;;;19.60;76.90;;;;;;5084500;28;20031;-79
2021/09/14 09:47:21;;;;;;;5.80;5.15;;;19.70;76.40;;;;;;5086309;28;20050;-81
2021/09/14 09:49:47;;;;;;;6.22;5.30;;;19.90;76.30;;;;;;5102107;28;20108;-80
2021/09/14 09:52:14;;;;;;;7.13;6.43;;;20.00;76.10;;;;;;5088135;28;20032;-79
2021/09/14 09:54:40;;;;;;;7.05;6.13;;;20.10;75.90;;;;;;5087294;28;20451;-80
2021/09/14 09:57:08;;;;;;;6.75;6.05;;;20.10;75.50;;;;;;5087460;28;20032;-81
2021/09/14 10:00:16;;;;;;;7.50;6.07;;;20.20;75.40;;;;;;5088656;28;20036;-79
2021/09/14 10:02:53;;;;;;;6.88;6.18;;;20.20;75.30;;;;;;5106738;28;20032;-81
2021/09/14 10:05:47;;;;;;;7.07;5.88;;;20.30;75.20;;;;;;5089236;28;20048;-81
2021/09/14 10:08:19;;;;;;;6.00;5.40;;;20.30;75.10;;;;;;5106196;28;20035;-81
2021/09/14 10:10:54;;;;;;;7.45;6.65;;;20.30;75.00;;;;;;5106533;28;20085;-79
2021/09/14 10:13:32;;;;;;;6.93;6.07;;;20.40;74.90;;;;;;5106091;28;20115;-80
2021/09/14 10:15:57;;;;;;;6.72;6.13;;;20.40;74.70;;;;;;5108248;28;20127;-80
2021/09/14 10:18:31;;;;;;;7.25;6.35;;;20.60;74.70;;;;;;5109142;28;20028;-81
2021/09/14 10:20:58;;;;;;;6.25;5.65;;;20.60;74.40;;;;;;5098467;28;20047;-81
2021/09/14 10:23:34;;;;;;;6.90;6.10;;;20.60;74.90;;;;;;5088308;28;20041;-80
2021/09/14 10:26:33;;;;;;;9.13;6.75;;;20.70;74.20;;;;;;5108575;28;20468;-81
2021/09/14 10:28:58;;;;;;;5.45;4.95;;;20.80;74.00;;;;;;5107661;28;20024;-80
2021/09/14 10:31:32;;;;;;;7.18;6.47;;;20.80;74.00;;;;;;5104464;28;20067;-80
2021/09/14 10:34:02;;;;;;;8.43;6.20;;;20.90;73.90;;;;;;5107622;28;20095;-81
2021/09/14 10:36:29;;;;;;;7.47;6.50;;;20.90;73.80;;;;;;5109560;28;20105;-80
2021/09/14 10:38:55;;;;;;;7.13;6.20;;;21.00;73.70;;;;;;5109324;28;20032;-81
2021/09/14 10:41:21;;;;;;;6.20;5.68;;;21.00;73.60;;;;;;5104398;28;20059;-80
2021/09/14 10:47:19;;;;;;;6.70;5.55;;;21.00;73.50;;;;;;5103771;28;20031;-81
2021/09/14 10:50:00;;;;;;;7.53;6.45;;;21.10;73.50;;;;;;5103602;28;20035;-81
2021/09/14 10:52:33;;;;;;;7.50;6.63;;;21.10;73.50;;;;;;5104515;28;20189;-80
2021/09/14 10:55:05;;;;;;;6.90;5.75;;;21.10;73.30;;;;;;5103838;28;20028;-80
2021/09/14 10:57:39;;;;;;;7.72;5.85;;;21.10;73.50;;;;;;5088604;28;20037;-81
2021/09/14 11:00:07;;;;;;;6.57;5.97;;;21.20;73.50;;;;;;5085170;28;20548;-79
2021/09/14 11:02:34;;;;;;;7.85;6.22;;;21.20;73.40;;;;;;5082952;28;20093;-81
2021/09/14 11:05:39;;;;;;;6.68;6.00;;;21.30;73.40;;;;;;5085228;28;20017;-81
2021/09/14 11:08:09;;;;;;;5.53;5.03;;;21.40;73.20;;;;;;5084716;28;20067;-80
2021/09/14 11:10:43;;;;;;;7.60;6.60;;;21.50;73.00;;;;;;5085665;28;20024;-80
2021/09/14 11:13:18;;;;;;;6.07;5.53;;;21.60;72.70;;;;;;5085165;28;20028;-79
2021/09/14 11:15:44;;;;;;;6.15;5.22;;;21.70;72.70;;;;;;5082508;28;20043;-81
2021/09/14 11:18:12;;;;;;;6.60;5.60;;;21.80;72.60;;;;;;5087111;28;20029;-81
2021/09/14 11:20:38;;;;;;;7.10;5.97;;;21.80;72.40;;;;;;5085839;28;20116;-80
2021/09/14 11:23:04;;;;;;;7.13;6.43;;;21.80;72.10;;;;;;5086293;28;20075;-81
2021/09/14 11:25:30;;;;;;;6.45;5.72;;;21.80;72.00;;;;;;5086111;28;20384;-81
2021/09/14 11:31:18;;;;;;;6.75;6.05;;;21.90;72.00;;;;;;5091569;28;20407;-80
2021/09/14 11:33:44;;;;;;;6.47;5.88;;;22.00;71.80;;;;;;5092376;28;20024;-81
2021/09/14 11:36:10;;;;;;;6.45;5.85;;;22.00;71.70;;;;;;5091193;28;20499;-81
2021/09/14 11:38:38;;;;;;;6.82;6.03;;;22.00;71.70;;;;;;5089434;28;20016;-80
2021/09/14 11:44:26;;;;;;;7.43;6.68;;;22.10;71.50;;;;;;5090837;28;20040;-81
2021/09/14 11:46:51;;;;;;;8.13;6.20;;;22.10;71.50;;;;;;5088621;28;20025;-81
2021/09/14 11:49:17;;;;;;;6.68;5.88;;;22.10;71.40;;;;;;5087891;28;20025;-81
2021/09/14 11:51:42;;;;;;;7.00;6.30;;;22.20;71.40;;;;;;5086724;28;20054;-81
2021/09/14 11:54:14;;;;;;;6.95;6.25;;;22.20;71.30;;;;;;5086699;28;20127;-80
2021/09/14 11:56:56;;;;;;;7.18;6.38;;;22.30;71.10;;;;;;5085231;28;20048;-81
2021/09/14 11:59:21;;;;;;;6.60;6.00;;;22.40;70.90;;;;;;5086239;28;20070;-81
2021/09/14 12:01:48;;;;;;;6.10;5.40;;;22.40;70.70;;;;;;5083114;28;20036;-81
2021/09/14 12:04:18;;;;;;;6.20;5.60;;;22.50;70.70;;;;;;5086073;28;20029;-81
2021/09/14 12:06:55;;;;;;;6.88;5.70;;;22.70;70.40;;;;;;5083985;28;20094;-81
2021/09/14 12:09:22;;;;;;;6.05;5.43;;;22.90;70.10;;;;;;5086619;28;20066;-79
2021/09/14 12:12:07;;;;;;;6.38;5.72;;;23.00;69.70;;;;;;5087511;28;20033;-80
2021/09/14 12:14:33;;;;;;;5.32;4.82;;;23.10;69.40;;;;;;5087421;28;20040;-80
2021/09/14 12:17:02;;;;;;;5.75;4.63;;;23.20;69.20;;;;;;5104997;28;20040;-81
2021/09/14 12:19:29;;;;;;;5.95;4.75;;;23.30;68.80;;;;;;5106947;28;20036;-79
2021/09/14 12:21:56;;;;;;;4.80;4.30;;;23.40;68.60;;;;;;5102688;28;20099;-79
2021/09/14 12:24:22;;;;;;;5.68;5.07;;;23.50;68.30;;;;;;5103644;28;20056;-80
2021/09/14 12:26:51;;;;;;;5.20;4.70;;;23.60;67.90;;;;;;5106865;28;20162;-81
2021/09/14 12:29:18;;;;;;;5.60;5.00;;;23.70;67.50;;;;;;5107444;28;20032;-80
2021/09/14 12:31:45;;;;;;;6.50;5.20;;;23.80;67.10;;;;;;5106797;28;20084;-81
2021/09/14 12:34:13;;;;;;;4.90;4.40;;;23.80;66.80;;;;;;5107150;28;20016;-81
2021/09/14 12:40:01;;;;;;;4.72;4.10;;;23.90;66.70;;;;;;5107006;28;20074;-81
2021/09/14 12:42:26;;;;;;;4.80;4.40;;;23.90;66.70;;;;;;5106907;28;20035;-80
2021/09/14 12:44:52;;;;;;;4.38;3.97;;;24.00;66.50;;;;;;5106921;28;20039;-81
2021/09/14 12:47:20;;;;;;;5.30;4.53;;;24.00;66.30;;;;;;5108248;28;20035;-81
2021/09/14 12:49:46;;;;;;;4.90;4.43;;;24.10;66.20;;;;;;5107956;28;20028;-80
2021/09/14 12:52:13;;;;;;;5.97;5.03;;;24.10;66.10;;;;;;5089968;28;20032;-81
2021/09/14 12:54:38;;;;;;;4.15;3.75;;;24.20;65.90;;;;;;5096157;28;20032;-81
2021/09/14 13:00:27;;;;;;;3.55;3.25;;;24.30;65.60;;;;;;5088909;28;20044;-81
2021/09/14 13:02:52;;;;;;;3.72;3.30;;;24.40;65.60;;;;;;5089257;28;20032;-81
2021/09/14 13:05:55;;;;;;;4.82;3.65;;;24.60;65.20;;;;;;5094093;28;20068;-81
2021/09/14 13:08:21;;;;;;;4.82;3.63;;;24.70;64.80;;;;;;5094222;28;20005;-80
2021/09/14 13:10:47;;;;;;;3.30;3.00;;;24.80;64.70;;;;;;5094115;28;20101;-80
2021/09/14 13:16:12;;;;;;;4.20;3.50;;;25.00;64.40;;;;;;5094927;28;20069;-79
2021/09/14 13:18:39;;;;;;;4.75;3.75;;;25.10;64.00;;;;;;5095239;28;20044;-81
2021/09/14 13:21:06;;;;;;;6.57;4.03;;;25.10;63.50;;;;;;5094474;28;20066;-82
2021/09/14 13:23:32;;;;;;;3.95;3.55;;;25.00;63.60;;;;;;5092030;28;20100;-80
2021/09/14 13:25:58;;;;;;;3.92;3.55;;;25.00;63.80;;;;;;5092840;28;20043;-80
2021/09/14 13:28:23;;;;;;;4.18;3.78;;;24.90;64.50;;;;;;5093864;28;20024;-80
2021/09/14 13:30:49;;;;;;;3.60;3.30;;;24.90;64.00;;;;;;5090192;28;20063;-81
2021/09/14 13:33:16;;;;;;;4.00;3.60;;;24.80;64.10;;;;;;5090331;28;20388;-81
2021/09/14 13:36:25;;;;;;;5.57;3.85;;;24.70;64.30;;;;;;5091903;28;20040;-82
2021/09/14 13:38:51;;;;;;;4.25;3.65;;;24.60;64.50;;;;;;5091189;28;20033;-80
2021/09/14 13:41:18;;;;;;;4.75;3.70;;;24.50;64.80;;;;;;5090587;28;20044;-80
2021/09/14 13:46:14;;;;;;;4.22;3.80;;;24.40;65.10;;;;;;5090244;28;20021;-81
2021/09/14 13:52:02;;;;;;;3.50;3.08;;;24.30;65.10;;;;;;5094162;28;20035;-81
2021/09/14 13:54:29;;;;;;;3.80;3.40;;;24.30;65.30;;;;;;5092730;28;20020;-82
2021/09/14 14:00:17;;;;;;;4.90;4.25;;;24.30;65.50;;;;;;5094929;28;20046;-80
2021/09/14 14:02:44;;;;;;;4.65;3.80;;;24.30;65.60;;;;;;5094335;28;20042;-81
2021/09/14 14:05:11;;;;;;;4.18;3.63;;;24.20;65.60;;;;;;5094312;28;20026;-81
2021/09/14 14:07:36;;;;;;;5.72;3.90;;;24.20;65.60;;;;;;5092778;28;20054;-79
2021/09/14 14:10:03;;;;;;;4.10;3.80;;;24.20;65.60;;;;;;5093666;28;20016;-80
2021/09/14 14:12:29;;;;;;;5.60;3.70;;;24.20;65.60;;;;;;5095114;28;20023;-81
2021/09/14 14:14:55;;;;;;;5.20;3.83;;;24.20;65.70;;;;;;5094233;28;20021;-80
2021/09/14 14:17:20;;;;;;;3.95;3.35;;;24.10;65.70;;;;;;5093611;28;20020;-81
2021/09/14 14:19:47;;;;;;;4.47;3.70;;;24.10;65.70;;;;;;5094817;28;20036;-80
2021/09/14 14:22:12;;;;;;;4.60;3.70;;;24.10;65.80;;;;;;5093027;28;20079;-81
2021/09/14 14:28:00;;;;;;;4.85;4.18;;;24.00;65.90;;;;;;5096126;28;20032;-81
2021/09/14 14:33:48;;;;;;;3.53;3.22;;;23.90;66.10;;;;;;5095112;28;20136;-79
2021/09/14 14:36:14;;;;;;;3.80;3.50;;;23.90;66.30;;;;;;5092417;28;20044;-80
2021/09/14 14:38:41;;;;;;;4.10;3.70;;;23.80;66.40;;;;;;5095022;28;20502;-80
2021/09/14 14:41:08;;;;;;;4.20;3.80;;;23.80;66.50;;;;;;5093673;28;20027;-81
2021/09/14 14:43:37;;;;;;;3.75;3.45;;;23.70;66.60;;;;;;5094589;28;20027;-81
2021/09/14 14:46:03;;;;;;;4.00;3.45;;;23.60;66.70;;;;;;5077208;28;20028;-80
2021/09/14 14:48:29;;;;;;;4.10;3.70;;;23.60;66.90;;;;;;5094082;28;20044;-80
2021/09/14 14:54:17;;;;;;;4.68;3.60;;;23.50;67.10;;;;;;5094273;28;20066;-79
2021/09/14 14:56:43;;;;;;;6.72;3.80;;;23.40;67.40;;;;;;5094543;28;20033;-80
2021/09/14 14:59:08;;;;;;;3.97;3.58;;;23.30;67.50;;;;;;5093535;28;20033;-80